createdAt,value
2022-08-16T00:02:30.325Z,17.80
2022-08-16T00:04:59.625Z,18.77
2022-08-16T00:07:29.005Z,18.38
2022-08-16T00:09:56.234Z,17.45
2022-08-16T00:12:23.863Z,17.92
2022-08-16T00:14:50.287Z,19.13
2022-08-16T00:17:19.479Z,18.75
2022-08-16T00:19:46.690Z,18.20
2022-08-16T00:22:19.997Z,18.13
2022-08-16T00:24:47.331Z,19.05
2022-08-16T00:27:18.015Z,17.95
2022-08-16T00:29:44.618Z,17.50
2022-08-16T00:32:12.579Z,17.20
2022-08-16T00:34:52.930Z,17.42
2022-08-16T00:37:21.030Z,18.75
2022-08-16T00:39:57.615Z,19.73
2022-08-16T00:42:30.750Z,18.98
2022-08-16T00:45:08.757Z,17.60
2022-08-16T00:47:39.272Z,18.83
2022-08-16T00:50:08.180Z,17.23
2022-08-16T00:52:38.538Z,19.42
2022-08-16T00:55:17.499Z,20.10
2022-08-16T00:57:59.494Z,20.33
2022-08-16T01:00:28.867Z,19.58
2022-08-16T01:02:57.176Z,20.13
2022-08-16T01:05:25.437Z,20.35
2022-08-16T01:07:53.458Z,19.35
2022-08-16T01:10:32.062Z,19.38
2022-08-16T01:13:02.437Z,18.92
2022-08-16T01:15:32.119Z,18.67
2022-08-16T01:17:59.915Z,18.20
2022-08-16T01:20:30.331Z,18.42
2022-08-16T01:23:03.666Z,16.58
2022-08-16T01:25:37.044Z,18.45
2022-08-16T01:28:07.140Z,21.40
2022-08-16T01:30:40.197Z,23.42
2022-08-16T01:33:17.711Z,23.92
2022-08-16T01:35:52.741Z,23.55
2022-08-16T01:38:22.603Z,21.10
2022-08-16T01:40:54.031Z,19.15
2022-08-16T01:43:21.403Z,18.90
2022-08-16T01:45:57.501Z,19.77
2022-08-16T01:48:26.098Z,19.27
2022-08-16T01:51:08.355Z,20.55
2022-08-16T01:53:41.288Z,19.95
2022-08-16T01:58:34.899Z,19.38
2022-08-16T02:01:04.226Z,19.15
2022-08-16T02:03:30.862Z,19.00
2022-08-16T02:05:57.360Z,17.85
2022-08-16T02:08:33.950Z,18.63
2022-08-16T02:11:02.369Z,20.33
2022-08-16T02:13:32.680Z,18.27
2022-08-16T02:15:59.558Z,16.95
2022-08-16T02:18:25.976Z,19.03
2022-08-16T02:20:53.568Z,18.90
2022-08-16T02:23:20.377Z,18.95
2022-08-16T02:25:52.748Z,20.30
2022-08-16T02:28:23.696Z,19.38
2022-08-16T02:30:51.953Z,20.90
2022-08-16T02:33:19.128Z,19.55
2022-08-16T02:35:54.386Z,19.92
2022-08-16T02:38:24.718Z,21.20
2022-08-16T02:40:51.535Z,20.52
2022-08-16T02:43:20.968Z,19.83
2022-08-16T02:45:53.389Z,20.75
2022-08-16T02:48:29.788Z,19.88
2022-08-16T02:53:34.384Z,21.50
2022-08-16T02:58:27.359Z,24.65
2022-08-16T03:00:55.979Z,24.65
2022-08-16T03:03:23.018Z,21.63
2022-08-16T03:05:52.415Z,23.13
2022-08-16T03:08:52.086Z,25.05
2022-08-16T03:11:06.622Z,23.85
2022-08-16T03:13:43.698Z,22.55
2022-08-16T03:16:38.024Z,23.33
2022-08-16T03:19:01.789Z,23.80
2022-08-16T03:23:56.446Z,24.80
2022-08-16T03:28:49.232Z,26.60
2022-08-16T03:31:16.003Z,27.15
2022-08-16T03:33:43.553Z,26.38
2022-08-16T03:36:30.260Z,26.52
2022-08-16T03:38:57.924Z,27.35
2022-08-16T03:41:29.330Z,26.42
2022-08-16T03:44:01.899Z,26.48
2022-08-16T03:46:48.192Z,25.25
2022-08-16T03:49:17.308Z,24.90
2022-08-16T03:51:43.854Z,24.85
2022-08-16T03:54:12.714Z,23.63
2022-08-16T03:56:39.512Z,26.50
2022-08-16T03:59:23.900Z,28.38
2022-08-16T04:01:53.558Z,29.17
2022-08-16T04:04:25.135Z,30.05
2022-08-16T04:06:59.401Z,28.17
2022-08-16T04:09:25.812Z,27.85
2022-08-16T04:11:52.772Z,29.80
2022-08-16T04:14:33.307Z,26.70
2022-08-16T04:17:01.641Z,30.33
2022-08-16T04:19:31.467Z,30.73
2022-08-16T04:21:58.611Z,31.40
2022-08-16T04:24:28.932Z,30.73
2022-08-16T04:26:55.984Z,30.42
2022-08-16T04:29:25.006Z,30.05
2022-08-16T04:31:56.682Z,31.85
2022-08-16T04:34:33.792Z,30.80
2022-08-16T04:37:01.426Z,31.13
2022-08-16T04:39:36.978Z,30.60
2022-08-16T04:42:12.932Z,29.20
2022-08-16T04:44:54.271Z,28.45
2022-08-16T04:47:24.496Z,28.23
2022-08-16T04:49:52.364Z,29.45
2022-08-16T04:52:33.917Z,31.00
2022-08-16T04:55:11.926Z,29.02
2022-08-16T04:57:38.797Z,29.77
2022-08-16T05:00:30.539Z,30.83
2022-08-16T05:02:54.959Z,30.02
2022-08-16T05:05:23.244Z,29.52
2022-08-16T05:07:59.535Z,29.52
2022-08-16T05:10:27.681Z,28.42
2022-08-16T05:12:54.220Z,30.40
2022-08-16T05:15:20.958Z,29.05
2022-08-16T05:17:48.788Z,29.30
2022-08-16T05:20:38.858Z,29.35
2022-08-16T05:23:11.990Z,29.35
2022-08-16T05:25:41.111Z,29.40
2022-08-16T05:28:14.658Z,29.25
2022-08-16T05:30:41.179Z,28.63
2022-08-16T05:33:16.900Z,27.90
2022-08-16T05:35:54.841Z,26.05
2022-08-16T05:38:32.956Z,27.80
2022-08-16T05:41:06.171Z,25.98
2022-08-16T05:43:43.342Z,28.35
2022-08-16T05:46:29.820Z,28.75
2022-08-16T05:49:03.598Z,29.65
2022-08-16T05:51:37.678Z,29.95
2022-08-16T05:54:06.647Z,30.33
2022-08-16T05:56:34.133Z,31.73
2022-08-16T05:59:04.350Z,31.27
2022-08-16T06:01:38.135Z,29.13
2022-08-16T06:04:12.863Z,28.83
2022-08-16T06:06:40.250Z,28.42
2022-08-16T06:09:10.801Z,29.75
2022-08-16T06:11:37.712Z,27.33
2022-08-16T06:14:04.687Z,29.85
2022-08-16T06:16:32.024Z,29.20
2022-08-16T06:21:25.598Z,28.67
2022-08-16T06:23:54.304Z,29.70
2022-08-16T06:26:21.659Z,29.77
2022-08-16T06:28:48.205Z,31.25
2022-08-16T06:31:16.664Z,30.25
2022-08-16T06:33:44.639Z,30.30
2022-08-16T06:36:14.019Z,28.40
2022-08-16T06:38:55.449Z,28.88
2022-08-16T06:41:22.805Z,28.25
2022-08-16T06:43:51.186Z,29.50
2022-08-16T06:46:31.789Z,29.45
2022-08-16T06:48:58.786Z,29.45
2022-08-16T06:51:25.226Z,29.10
2022-08-16T06:54:13.398Z,28.33
2022-08-16T06:56:41.154Z,28.95
2022-08-16T06:59:09.129Z,27.67
2022-08-16T07:01:44.760Z,29.40
2022-08-16T07:04:28.163Z,30.55
2022-08-16T07:07:00.141Z,30.85
2022-08-16T07:09:29.730Z,29.17
2022-08-16T07:11:57.338Z,30.38
2022-08-16T07:14:30.821Z,31.27
2022-08-16T07:16:58.148Z,30.88
2022-08-16T07:19:33.479Z,30.85
2022-08-16T07:22:37.206Z,33.33
2022-08-16T07:24:58.136Z,33.05
2022-08-16T07:27:24.872Z,34.38
2022-08-16T07:29:51.353Z,34.88
2022-08-16T07:32:29.402Z,35.22
2022-08-16T07:34:56.255Z,35.55
2022-08-16T07:37:23.185Z,35.45
2022-08-16T07:39:50.810Z,34.80
2022-08-16T07:42:20.198Z,36.00
2022-08-16T07:44:55.304Z,33.10
2022-08-16T07:47:24.627Z,35.38
2022-08-16T07:49:58.905Z,34.92
2022-08-16T07:52:29.951Z,34.47
2022-08-16T07:54:57.351Z,35.33
2022-08-16T07:57:24.118Z,34.17
2022-08-16T07:59:50.928Z,34.80
2022-08-16T08:02:20.090Z,33.15
2022-08-16T08:04:47.624Z,32.60
2022-08-16T08:07:14.749Z,33.47
2022-08-16T08:09:43.396Z,31.50
2022-08-16T08:14:36.898Z,30.83
2022-08-16T08:17:05.262Z,29.58
2022-08-16T08:19:35.552Z,29.95
2022-08-16T08:22:05.939Z,27.27
2022-08-16T08:24:37.719Z,27.73
2022-08-16T08:27:04.571Z,27.20
2022-08-16T08:29:37.496Z,26.83
2022-08-16T08:32:51.059Z,26.50
2022-08-16T08:34:55.326Z,26.95
2022-08-16T08:37:27.589Z,26.55
2022-08-16T08:40:14.239Z,24.48
2022-08-16T08:42:48.044Z,26.05
2022-08-16T08:45:36.102Z,25.55
2022-08-16T08:48:02.678Z,27.13
2022-08-16T08:50:32.560Z,26.13
2022-08-16T08:52:59.120Z,24.83
2022-08-16T08:55:27.769Z,25.67
2022-08-16T08:57:57.487Z,24.70
2022-08-16T09:02:53.753Z,22.13
2022-08-16T09:05:22.191Z,24.60
2022-08-16T09:08:00.373Z,25.83
2022-08-16T09:10:29.433Z,23.70
2022-08-16T09:12:56.373Z,25.88
2022-08-16T09:15:23.858Z,24.63
2022-08-16T09:17:55.738Z,25.45
2022-08-16T09:20:26.217Z,24.75
2022-08-16T09:22:53.095Z,23.90
2022-08-16T09:25:26.328Z,25.77
2022-08-16T09:28:02.393Z,25.08
2022-08-16T09:30:42.949Z,25.27
2022-08-16T09:33:10.560Z,25.40
2022-08-16T09:35:38.782Z,26.25
2022-08-16T09:38:05.692Z,24.33
2022-08-16T09:40:42.895Z,25.58
2022-08-16T09:43:21.121Z,24.70
2022-08-16T09:45:57.940Z,24.65
2022-08-16T09:48:36.858Z,24.23
2022-08-16T09:51:12.058Z,24.13
2022-08-16T09:53:38.899Z,22.65
2022-08-16T09:56:14.909Z,24.65
2022-08-16T09:59:03.901Z,22.08
2022-08-16T10:01:31.831Z,22.90
2022-08-16T10:04:02.457Z,25.70
2022-08-16T10:06:33.594Z,25.00
2022-08-16T10:09:05.022Z,25.23
2022-08-16T10:11:51.241Z,25.17
2022-08-16T10:14:17.764Z,25.73
2022-08-16T10:16:48.773Z,26.00
2022-08-16T10:19:15.704Z,24.58
2022-08-16T10:21:46.381Z,25.63
2022-08-16T10:24:28.603Z,24.63
2022-08-16T10:27:17.978Z,24.60
2022-08-16T10:30:01.519Z,24.77
2022-08-16T10:32:32.179Z,24.50
2022-08-16T10:34:59.119Z,22.67
2022-08-16T10:37:36.300Z,24.23
2022-08-16T10:40:28.375Z,23.08
2022-08-16T10:42:54.281Z,24.42
2022-08-16T10:45:20.818Z,23.85
2022-08-16T10:47:47.638Z,22.17
2022-08-16T10:50:25.885Z,23.25
2022-08-16T10:52:59.118Z,24.02
2022-08-16T10:55:44.533Z,24.15
2022-08-16T10:58:13.351Z,23.27
2022-08-16T11:00:40.823Z,23.38
2022-08-16T11:03:43.271Z,25.45
2022-08-16T11:06:03.231Z,23.25
2022-08-16T11:08:36.431Z,23.30
2022-08-16T11:11:06.383Z,24.08
2022-08-16T11:16:26.609Z,23.13
2022-08-16T11:19:04.294Z,21.38
2022-08-16T11:21:36.564Z,20.02
2022-08-16T11:24:03.584Z,18.45
2022-08-16T11:27:18.422Z,19.17
2022-08-16T11:29:39.199Z,19.75
2022-08-16T11:32:07.531Z,19.95
2022-08-16T11:34:56.610Z,20.77
2022-08-16T11:37:27.618Z,17.10
2022-08-16T11:40:07.590Z,17.85
2022-08-16T11:42:37.728Z,17.92
2022-08-16T11:45:07.535Z,16.45
2022-08-16T11:47:33.984Z,16.88
2022-08-16T11:50:00.578Z,18.58
2022-08-16T11:52:27.818Z,17.20
2022-08-16T11:54:57.122Z,17.85
2022-08-16T11:57:26.983Z,14.55
2022-08-16T11:59:54.962Z,16.20
2022-08-16T12:02:31.106Z,16.33
2022-08-16T12:04:59.188Z,16.45
2022-08-16T12:07:27.771Z,17.48
2022-08-16T12:12:23.653Z,17.17
2022-08-16T12:14:53.335Z,16.63
2022-08-16T12:17:26.539Z,17.17
2022-08-16T12:19:53.703Z,16.08
2022-08-16T12:22:20.370Z,18.33
2022-08-16T12:24:52.226Z,17.55
2022-08-16T12:27:20.037Z,14.68
2022-08-16T12:29:51.186Z,15.98
2022-08-16T12:32:38.066Z,13.85
2022-08-16T12:35:07.438Z,14.48
2022-08-16T12:37:34.128Z,15.93
2022-08-16T12:40:01.666Z,16.17
2022-08-16T12:42:35.491Z,15.40
2022-08-16T12:45:06.135Z,13.23
2022-08-16T12:47:51.475Z,13.98
2022-08-16T12:50:21.673Z,12.57
2022-08-16T12:53:00.365Z,11.35
2022-08-16T12:55:33.654Z,10.38
2022-08-16T12:58:13.780Z,8.93
2022-08-16T13:00:54.739Z,7.50
2022-08-16T13:03:21.605Z,7.50
2022-08-16T13:05:55.396Z,7.22
2022-08-16T13:08:22.455Z,6.88
2022-08-16T13:10:55.169Z,6.00
2022-08-16T13:13:27.327Z,7.32
2022-08-16T13:16:03.741Z,7.90
2022-08-16T13:18:34.159Z,7.95
2022-08-16T13:21:05.695Z,7.75
2022-08-16T13:23:33.051Z,13.85
2022-08-16T13:25:59.882Z,7.63
2022-08-16T13:28:26.453Z,6.72
2022-08-16T13:30:54.130Z,6.60
2022-08-16T13:33:24.750Z,6.35
2022-08-16T13:35:56.039Z,7.35
2022-08-16T13:38:25.633Z,7.35
2022-08-16T13:40:56.020Z,7.13
2022-08-16T13:43:25.034Z,7.78
2022-08-16T13:45:53.120Z,9.02
2022-08-16T13:48:25.301Z,8.75
2022-08-16T13:50:53.852Z,7.50
2022-08-16T13:53:24.560Z,5.95
2022-08-16T13:55:58.007Z,5.35
2022-08-16T13:58:36.980Z,6.20
2022-08-16T14:01:12.354Z,7.95
2022-08-16T14:03:39.725Z,6.75
2022-08-16T14:06:07.223Z,5.70
2022-08-16T14:08:37.580Z,5.40
2022-08-16T14:11:11.830Z,6.15
2022-08-16T14:13:40.848Z,5.80
2022-08-16T14:16:12.489Z,5.32
2022-08-16T14:18:51.074Z,5.05
2022-08-16T14:21:19.494Z,5.18
2022-08-16T14:23:48.679Z,6.25
2022-08-16T14:26:15.163Z,8.18
2022-08-16T14:28:41.680Z,8.93
2022-08-16T14:33:35.877Z,10.93
2022-08-16T14:36:02.350Z,10.48
2022-08-16T14:38:29.673Z,11.07
2022-08-16T14:41:03.977Z,11.85
2022-08-16T14:43:33.479Z,11.15
2022-08-16T14:46:01.129Z,12.27
2022-08-16T14:50:55.350Z,12.57
2022-08-16T14:53:22.943Z,12.43
2022-08-16T14:58:18.784Z,13.07
2022-08-16T15:00:46.197Z,11.90
2022-08-16T15:03:12.667Z,11.80
2022-08-16T15:05:40.186Z,11.27
2022-08-16T15:08:06.647Z,12.50
2022-08-16T15:10:34.521Z,13.60
2022-08-16T15:13:05.671Z,14.38
2022-08-16T15:15:37.073Z,14.38
2022-08-16T15:18:04.584Z,14.00
2022-08-16T15:20:33.866Z,14.23
2022-08-16T15:23:01.471Z,14.20
2022-08-16T15:25:33.362Z,14.40
2022-08-16T15:28:02.528Z,14.25
2022-08-16T15:30:56.611Z,13.15
2022-08-16T15:35:47.295Z,11.25
2022-08-16T15:38:57.261Z,11.57
2022-08-16T15:41:02.144Z,13.23
2022-08-16T15:43:39.028Z,14.00
2022-08-16T15:46:53.970Z,17.02
2022-08-16T15:49:12.110Z,15.48
2022-08-16T15:51:39.146Z,17.58
2022-08-16T15:54:21.382Z,17.80
2022-08-16T15:56:55.203Z,18.83
2022-08-16T15:59:27.158Z,17.95
2022-08-16T16:01:54.043Z,17.58
2022-08-16T16:04:22.989Z,17.58
2022-08-16T16:06:55.139Z,22.25
2022-08-16T16:09:34.768Z,35.03
2022-08-16T16:12:16.349Z,33.33
2022-08-16T16:14:51.209Z,25.80
2022-08-16T16:17:17.636Z,22.23
2022-08-16T16:19:44.102Z,24.50
2022-08-16T16:22:10.806Z,43.70
2022-08-16T16:24:39.852Z,73.57
2022-08-16T16:27:06.596Z,148.52
2022-08-16T16:29:37.138Z,113.57
2022-08-16T16:32:07.754Z,213.52
2022-08-16T16:34:35.723Z,290.40
2022-08-16T16:39:31.661Z,448.02
2022-08-16T16:41:59.563Z,611.03
2022-08-16T16:47:00.448Z,541.35
2022-08-16T16:49:26.892Z,261.10
2022-08-16T16:52:04.042Z,103.95
2022-08-16T16:54:35.581Z,25.70
2022-08-16T16:57:02.367Z,16.45
2022-08-16T16:59:29.007Z,15.07
2022-08-16T17:02:46.137Z,14.93
2022-08-16T17:04:45.778Z,48.20
2022-08-16T17:07:13.752Z,26.20
2022-08-16T17:09:41.262Z,14.83
2022-08-16T17:12:08.989Z,13.70
2022-08-16T17:14:35.507Z,12.90
2022-08-16T17:17:06.978Z,13.68
2022-08-16T17:19:40.889Z,13.98
2022-08-16T17:22:16.002Z,53.45
2022-08-16T17:24:50.760Z,427.98
2022-08-16T17:27:33.141Z,108.65
2022-08-16T17:30:02.655Z,34.67
2022-08-16T17:32:33.936Z,20.55
2022-08-16T17:35:18.384Z,13.20
2022-08-16T17:37:54.204Z,13.52
2022-08-16T17:40:40.360Z,14.48
2022-08-16T17:43:10.680Z,13.20
2022-08-16T17:45:39.188Z,13.93
2022-08-16T17:48:06.451Z,13.95
2022-08-16T17:50:32.897Z,14.75
2022-08-16T17:52:59.821Z,38.33
2022-08-16T17:55:28.196Z,23.05
2022-08-16T17:57:54.672Z,16.08
2022-08-16T18:00:22.000Z,23.37
2022-08-16T18:02:50.299Z,35.67
2022-08-16T18:05:17.448Z,25.90
2022-08-16T18:07:44.326Z,20.23
2022-08-16T18:10:11.137Z,34.60
2022-08-16T18:12:50.808Z,23.92
2022-08-16T18:15:23.423Z,22.38
2022-08-16T18:17:53.478Z,19.02
2022-08-16T18:20:40.260Z,17.92
2022-08-16T18:23:08.675Z,16.85
2022-08-16T18:25:35.898Z,19.83
2022-08-16T18:28:03.026Z,30.08
2022-08-16T18:30:29.512Z,37.58
2022-08-16T18:32:56.414Z,39.83
2022-08-16T18:35:22.935Z,60.67
2022-08-16T18:37:49.671Z,90.97
2022-08-16T18:40:16.412Z,60.15
2022-08-16T18:42:57.021Z,34.73
2022-08-16T18:45:23.844Z,24.10
2022-08-16T18:48:02.000Z,23.65
2022-08-16T18:50:28.490Z,32.13
2022-08-16T18:53:16.059Z,23.00
2022-08-16T18:55:45.339Z,28.20
2022-08-16T18:58:15.453Z,20.73
2022-08-16T19:00:52.714Z,22.95
2022-08-16T19:03:24.277Z,26.20
2022-08-16T19:05:57.744Z,21.33
2022-08-16T19:08:24.373Z,22.50
2022-08-16T19:10:51.099Z,18.85
2022-08-16T19:13:27.569Z,19.20
2022-08-16T19:15:55.827Z,21.00
2022-08-16T19:18:22.708Z,22.40
2022-08-16T19:20:49.524Z,20.65
2022-08-16T19:23:17.855Z,22.02
2022-08-16T19:25:53.102Z,20.48
2022-08-16T19:28:50.549Z,18.92
2022-08-16T19:31:11.050Z,17.98
2022-08-16T19:33:39.697Z,19.67
2022-08-16T19:36:06.704Z,19.45
2022-08-16T19:38:34.586Z,19.33
2022-08-16T19:41:01.260Z,20.10
2022-08-16T19:43:27.724Z,19.02
2022-08-16T19:45:56.201Z,19.02
2022-08-16T19:48:22.677Z,18.33
2022-08-16T19:50:49.186Z,18.10
2022-08-16T19:53:19.254Z,17.63
2022-08-16T19:55:46.243Z,18.48
2022-08-16T19:58:14.274Z,16.00
2022-08-16T20:00:43.294Z,18.17
2022-08-16T20:03:11.713Z,17.63
2022-08-16T20:05:38.225Z,17.30
2022-08-16T20:08:06.044Z,16.73
2022-08-16T20:10:32.685Z,15.88
2022-08-16T20:13:02.339Z,16.87
2022-08-16T20:15:30.259Z,16.80
2022-08-16T20:20:26.148Z,16.45
2022-08-16T20:22:54.437Z,16.85
2022-08-16T20:25:28.347Z,16.92
2022-08-16T20:27:55.350Z,17.15
2022-08-16T20:30:22.075Z,16.88
2022-08-16T20:32:49.040Z,17.13
2022-08-16T20:35:17.373Z,17.10
2022-08-16T20:37:43.968Z,16.60
2022-08-16T20:40:33.281Z,16.93
2022-08-16T20:43:10.224Z,16.20
2022-08-16T20:45:38.067Z,16.67
2022-08-16T20:48:05.236Z,15.60
2022-08-16T20:50:31.857Z,17.30
2022-08-16T20:52:58.603Z,15.83
2022-08-16T20:55:25.756Z,15.70
2022-08-16T20:57:55.677Z,16.35
2022-08-16T21:00:22.516Z,16.75
2022-08-16T21:02:49.266Z,16.65
2022-08-16T21:05:24.557Z,15.40
2022-08-16T21:07:51.413Z,16.80
2022-08-16T21:10:21.116Z,15.80
2022-08-16T21:12:52.224Z,17.00
2022-08-16T21:15:18.792Z,16.00
2022-08-16T21:17:45.221Z,15.73
2022-08-16T21:20:12.020Z,15.52
2022-08-16T21:22:39.511Z,16.25
2022-08-16T21:27:32.282Z,15.70
2022-08-16T21:30:01.333Z,15.13
2022-08-16T21:32:35.131Z,16.08
2022-08-16T21:35:10.191Z,14.77
2022-08-16T21:37:36.641Z,15.90
2022-08-16T21:40:03.998Z,16.67
2022-08-16T21:45:02.277Z,16.00
2022-08-16T21:47:28.708Z,18.13
2022-08-16T21:49:55.221Z,18.52
2022-08-16T21:52:26.668Z,17.67
2022-08-16T21:54:56.293Z,18.20
2022-08-16T21:57:23.207Z,18.65
2022-08-16T21:59:51.856Z,18.43
2022-08-16T22:02:19.279Z,18.98
2022-08-16T22:07:15.314Z,18.95
2022-08-16T22:09:42.263Z,19.83
2022-08-16T22:12:08.901Z,20.38
2022-08-16T22:14:35.684Z,20.30
2022-08-16T22:17:02.377Z,21.88
2022-08-16T22:19:28.905Z,21.20
2022-08-16T22:21:55.764Z,20.93
2022-08-16T22:24:22.222Z,21.67
2022-08-16T22:26:48.678Z,23.08
2022-08-16T22:29:15.184Z,21.65
2022-08-16T22:31:42.017Z,22.60
2022-08-16T22:34:09.000Z,22.08
2022-08-16T22:36:35.656Z,21.52
2022-08-16T22:39:03.792Z,22.60
2022-08-16T22:41:32.023Z,21.48
2022-08-16T22:43:58.682Z,22.13
2022-08-16T22:46:25.207Z,20.57
2022-08-16T22:48:51.733Z,19.45
2022-08-16T22:51:18.975Z,20.27
2022-08-16T22:53:45.429Z,20.88
2022-08-16T22:56:11.906Z,22.05
2022-08-16T22:58:38.400Z,22.50
2022-08-16T23:01:06.262Z,22.02
2022-08-16T23:03:32.842Z,21.50
2022-08-16T23:06:02.043Z,21.65
2022-08-16T23:08:39.601Z,22.33
2022-08-16T23:11:15.904Z,21.77
2022-08-16T23:13:52.869Z,22.73
2022-08-16T23:16:33.532Z,20.85
2022-08-16T23:19:04.954Z,21.88
2022-08-16T23:21:32.208Z,21.10
2022-08-16T23:23:58.719Z,22.17
2022-08-16T23:26:43.761Z,20.60
2022-08-16T23:29:22.026Z,22.20
2022-08-16T23:31:53.368Z,21.42
2022-08-16T23:34:20.522Z,21.10
2022-08-16T23:36:46.943Z,22.23
2022-08-16T23:39:13.413Z,21.85
2022-08-16T23:41:40.441Z,22.52
2022-08-16T23:44:56.089Z,22.35
2022-08-16T23:46:53.351Z,23.70
2022-08-16T23:49:58.781Z,25.08
2022-08-16T23:52:07.677Z,23.33
2022-08-16T23:54:34.670Z,23.70
2022-08-16T23:57:01.194Z,24.83
2022-08-16T23:59:27.838Z,24.85
